X  CloseMetar Aviation Weather Data     EBBR Brussels Airport

Temperature

28°C Temperature

10°C Dewpoint

32% Humidity



Wind

10 KM/H

 6 MPH

 3 M/S

 5 KTS



150°
South South
East
Current Conditions

Clear Clear
Pressure 1018.92 (hPa) - 30.09 (in)
Visibility 6.2 (mi) - 10 (km)
Airport
Airport-code EBBR

Location Brussels Airport 14 (km)

Metar:
EBBR 061020Z 15005KT 120V190 CAVOK 28/10 Q1019 NOSIG

Time: 06-08-2020 12:20